Terminal Aerodrome Forecast
Issued by NWS

Home | Current Version | Previous Version | Text Only | Print | Product List | Glossary On
Versions: 1 2 3 4 5 6 7 8 9 10 11 12 13 14 15
000
FTUS43 KGRB 280710 AAA
TAFAUW
TAF AMD
KAUW 280710Z 2807/2906 09005KT 6SM -RA BR SCT005 BKN025
      TEMPO 2807/2811 3SM -RA BR BKN005
     FM281400 06006KT P6SM VCSH BKN030
     FM282000 06007KT P6SM BKN040
     FM290100 03003KT P6SM SCT040 BKN100=

USA.gov is the U.S. government's official web portal to all federal, state and local government web resources and services.